createdAt,value
2022-08-22T00:02:32.907Z,2.47
2022-08-22T00:02:46.231Z,1.58
2022-08-22T00:02:46.944Z,1.98
2022-08-22T00:02:58.682Z,2.30
2022-08-22T00:03:04.983Z,1.67
2022-08-22T00:03:08.058Z,1.77
2022-08-22T00:05:07.367Z,2.30
2022-08-22T00:07:47.184Z,2.15
2022-08-22T00:10:25.464Z,2.58
2022-08-22T00:13:04.653Z,1.83
2022-08-22T00:15:43.148Z,2.10
2022-08-22T00:18:16.804Z,2.37
2022-08-22T00:20:50.553Z,2.10
2022-08-22T00:23:23.784Z,1.85
2022-08-22T00:25:57.377Z,2.15
2022-08-22T00:28:32.906Z,2.33
2022-08-22T00:31:09.195Z,2.20
2022-08-22T00:33:46.256Z,2.67
2022-08-22T00:36:20.757Z,2.20
2022-08-22T00:38:54.872Z,2.20
2022-08-22T00:41:37.190Z,2.20
2022-08-22T00:44:32.565Z,2.17
2022-08-22T00:47:12.856Z,2.28
2022-08-22T00:52:55.233Z,2.20
2022-08-22T00:58:42.415Z,2.55
2022-08-22T01:01:15.703Z,1.92
2022-08-22T01:04:28.706Z,2.15
2022-08-22T01:07:11.252Z,1.85
2022-08-22T01:09:52.418Z,2.25
2022-08-22T01:12:39.901Z,3.25
2022-08-22T01:15:11.633Z,1.88
2022-08-22T01:18:29.757Z,2.28
2022-08-22T01:21:34.147Z,2.33
2022-08-22T01:25:00.784Z,1.90
2022-08-22T01:27:58.929Z,2.60
2022-08-22T01:30:47.933Z,2.42
2022-08-22T01:33:45.523Z,2.42
2022-08-22T01:36:32.272Z,2.35
2022-08-22T01:39:21.436Z,2.13
2022-08-22T01:42:15.346Z,2.20
2022-08-22T01:45:16.734Z,2.40
2022-08-22T01:47:56.532Z,2.17
2022-08-22T01:50:30.426Z,2.17
2022-08-22T01:53:06.998Z,2.30
2022-08-22T01:55:43.803Z,2.17
2022-08-22T01:58:17.740Z,2.28
2022-08-22T02:01:19.297Z,2.40
2022-08-22T02:04:00.549Z,2.42
2022-08-22T02:06:39.701Z,2.80
2022-08-22T02:09:15.657Z,2.70
2022-08-22T02:11:50.519Z,2.33
2022-08-22T02:14:30.642Z,2.45
2022-08-22T02:17:15.057Z,2.83
2022-08-22T02:19:51.037Z,2.80
2022-08-22T02:22:29.572Z,2.75
2022-08-22T02:25:08.919Z,2.55
2022-08-22T02:27:52.152Z,2.70
2022-08-22T02:30:23.040Z,2.30
2022-08-22T02:33:01.150Z,2.70
2022-08-22T02:35:35.740Z,2.70
2022-08-22T02:38:16.830Z,2.53
2022-08-22T02:40:54.555Z,2.47
2022-08-22T02:43:28.633Z,2.47
2022-08-22T02:46:03.602Z,2.35
2022-08-22T02:48:40.487Z,2.70
2022-08-22T02:51:16.512Z,2.47
2022-08-22T02:53:52.751Z,2.70
2022-08-22T02:56:27.878Z,3.00
2022-08-22T02:59:00.122Z,2.85
2022-08-22T03:01:40.861Z,2.33
2022-08-22T03:04:47.238Z,3.13
2022-08-22T03:07:27.016Z,2.60
2022-08-22T03:10:07.563Z,2.72
2022-08-22T03:12:45.584Z,2.40
2022-08-22T03:15:23.577Z,2.35
2022-08-22T03:17:57.272Z,2.60
2022-08-22T03:20:43.563Z,2.40
2022-08-22T03:23:21.930Z,2.33
2022-08-22T03:25:57.468Z,2.65
2022-08-22T03:28:32.884Z,3.00
2022-08-22T03:31:12.327Z,3.22
2022-08-22T03:33:40.682Z,2.63
2022-08-22T03:36:23.222Z,2.92
2022-08-22T03:39:08.781Z,2.65
2022-08-22T03:42:09.872Z,3.22
2022-08-22T03:45:08.056Z,2.97
2022-08-22T03:48:12.526Z,3.03
2022-08-22T03:51:04.815Z,2.83
2022-08-22T03:53:53.077Z,2.50
2022-08-22T03:56:42.376Z,2.92
2022-08-22T03:59:30.924Z,2.80
2022-08-22T04:02:42.222Z,2.78
2022-08-22T04:05:42.030Z,3.28
2022-08-22T04:08:37.543Z,3.05
2022-08-22T04:11:41.345Z,3.20
2022-08-22T04:14:39.713Z,3.53
2022-08-22T04:17:51.040Z,3.22
2022-08-22T04:20:41.502Z,3.50
2022-08-22T04:23:30.889Z,3.65
2022-08-22T04:26:10.739Z,3.47
2022-08-22T04:28:46.134Z,2.83
2022-08-22T04:31:17.255Z,3.67
2022-08-22T04:33:50.618Z,3.30
2022-08-22T04:36:24.857Z,3.35
2022-08-22T04:39:00.753Z,4.03
2022-08-22T04:41:47.239Z,3.13
2022-08-22T04:44:20.235Z,3.25
2022-08-22T04:46:55.423Z,3.67
2022-08-22T04:49:38.017Z,3.65
2022-08-22T04:52:14.082Z,3.80
2022-08-22T04:54:54.593Z,4.00
2022-08-22T04:57:32.575Z,3.63
2022-08-22T05:00:02.599Z,3.20
2022-08-22T05:02:31.216Z,3.40
2022-08-22T05:05:04.345Z,3.40
2022-08-22T05:07:36.555Z,3.13
2022-08-22T05:10:12.005Z,3.17
2022-08-22T05:12:44.784Z,3.90
2022-08-22T05:15:23.225Z,2.97
2022-08-22T05:17:54.817Z,3.10
2022-08-22T05:20:27.275Z,3.50
2022-08-22T05:22:59.358Z,3.33
2022-08-22T05:25:32.220Z,3.45
2022-08-22T05:28:13.239Z,4.10
2022-08-22T05:30:41.968Z,3.90
2022-08-22T05:33:27.567Z,4.10
2022-08-22T05:36:03.625Z,4.30
2022-08-22T05:38:35.413Z,4.18
2022-08-22T05:41:07.481Z,3.80
2022-08-22T05:43:40.153Z,3.75
2022-08-22T05:46:17.834Z,4.20
2022-08-22T05:48:55.506Z,3.90
2022-08-22T05:51:31.298Z,3.85
2022-08-22T05:54:12.193Z,4.20
2022-08-22T05:56:46.061Z,4.28
2022-08-22T05:59:24.669Z,4.10
2022-08-22T06:02:03.244Z,4.28
2022-08-22T06:04:37.153Z,4.90
2022-08-22T06:07:13.780Z,4.95
2022-08-22T06:10:08.376Z,3.90
2022-08-22T06:12:43.147Z,4.50
2022-08-22T06:15:21.070Z,4.72
2022-08-22T06:17:51.714Z,4.65
2022-08-22T06:20:22.332Z,4.95
2022-08-22T06:22:55.266Z,4.82
2022-08-22T06:25:26.819Z,4.32
2022-08-22T06:27:56.685Z,4.22
2022-08-22T06:30:29.264Z,4.93
2022-08-22T06:33:03.964Z,4.57
2022-08-22T06:35:50.710Z,4.50
2022-08-22T06:38:21.490Z,4.35
2022-08-22T06:40:50.949Z,5.45
2022-08-22T06:43:19.716Z,4.65
2022-08-22T06:45:48.609Z,4.63
2022-08-22T06:48:20.233Z,5.22
2022-08-22T06:50:54.521Z,4.85
2022-08-22T06:53:28.338Z,5.88
2022-08-22T06:55:57.873Z,5.15
2022-08-22T06:58:34.131Z,5.67
2022-08-22T07:01:12.317Z,5.32
2022-08-22T07:03:45.112Z,6.15
2022-08-22T07:06:17.195Z,5.05
2022-08-22T07:08:47.487Z,5.03
2022-08-22T07:13:52.542Z,5.60
2022-08-22T07:16:29.878Z,5.35
2022-08-22T07:18:58.729Z,5.78
2022-08-22T07:21:30.160Z,5.82
2022-08-22T07:24:02.496Z,5.95
2022-08-22T07:26:38.227Z,5.93
2022-08-22T07:29:12.042Z,5.57
2022-08-22T07:31:46.756Z,5.15
2022-08-22T07:34:33.379Z,5.18
2022-08-22T07:37:08.302Z,5.25
2022-08-22T07:39:43.961Z,5.60
2022-08-22T07:42:15.775Z,4.85
2022-08-22T07:45:06.825Z,6.40
2022-08-22T07:47:53.358Z,5.70
2022-08-22T07:50:25.582Z,5.25
2022-08-22T07:52:59.022Z,4.90
2022-08-22T07:55:28.668Z,4.97
2022-08-22T07:57:59.372Z,4.47
2022-08-22T08:00:28.957Z,4.45
2022-08-22T08:03:00.365Z,4.60
2022-08-22T08:05:32.244Z,4.68
2022-08-22T08:08:03.711Z,5.10
2022-08-22T08:10:35.500Z,5.95
2022-08-22T08:13:08.774Z,5.18
2022-08-22T08:15:40.286Z,4.85
2022-08-22T08:18:14.237Z,4.65
2022-08-22T08:20:42.386Z,5.30
2022-08-22T08:23:19.500Z,4.07
2022-08-22T08:26:01.353Z,4.60
2022-08-22T08:28:35.074Z,3.75
2022-08-22T08:31:14.681Z,4.18
2022-08-22T08:33:47.246Z,4.65
2022-08-22T08:36:33.685Z,3.90
2022-08-22T08:39:14.110Z,4.05
2022-08-22T08:42:25.960Z,5.20
2022-08-22T08:45:24.874Z,4.18
2022-08-22T08:48:17.448Z,3.92
2022-08-22T08:51:02.868Z,5.05
2022-08-22T08:54:05.156Z,4.30
2022-08-22T08:56:39.377Z,4.45
2022-08-22T08:59:27.683Z,3.63
2022-08-22T09:02:20.698Z,3.88
2022-08-22T09:05:19.513Z,3.60
2022-08-22T09:08:24.743Z,3.17
2022-08-22T09:11:46.378Z,3.28
2022-08-22T09:14:29.789Z,3.45
2022-08-22T09:17:27.216Z,2.60
2022-08-22T09:20:20.107Z,3.20
2022-08-22T09:23:33.414Z,3.50
2022-08-22T09:26:12.752Z,3.13
2022-08-22T09:28:47.951Z,3.17
2022-08-22T09:31:48.096Z,3.00
2022-08-22T09:34:28.848Z,2.53
2022-08-22T09:37:14.415Z,2.85
2022-08-22T09:39:53.737Z,2.70
2022-08-22T09:42:32.532Z,2.50
2022-08-22T09:45:34.262Z,2.78
2022-08-22T09:48:11.368Z,4.55
2022-08-22T09:50:54.588Z,2.58
2022-08-22T09:53:45.145Z,2.53
2022-08-22T09:56:21.042Z,2.35
2022-08-22T09:59:02.466Z,2.08
2022-08-22T10:01:35.355Z,2.58
2022-08-22T10:04:45.883Z,2.58
2022-08-22T10:07:33.276Z,2.95
2022-08-22T10:10:11.530Z,2.78
2022-08-22T10:12:50.959Z,2.45
2022-08-22T10:15:24.270Z,2.53
2022-08-22T10:18:04.968Z,2.15
2022-08-22T10:20:46.634Z,2.28
2022-08-22T10:23:22.180Z,2.28
2022-08-22T10:25:54.732Z,2.30
2022-08-22T10:28:37.832Z,2.15
2022-08-22T10:31:19.131Z,1.92
2022-08-22T10:34:00.482Z,2.63
2022-08-22T10:36:37.436Z,2.60
2022-08-22T10:39:11.608Z,2.67
2022-08-22T10:42:01.717Z,1.80
2022-08-22T10:44:40.102Z,2.10
2022-08-22T10:47:14.981Z,2.38
2022-08-22T10:49:51.588Z,2.17
2022-08-22T10:52:25.062Z,2.20
2022-08-22T10:55:01.422Z,2.55
2022-08-22T10:57:52.960Z,2.70
2022-08-22T11:00:38.383Z,2.17
2022-08-22T11:03:21.855Z,2.17
2022-08-22T11:05:54.335Z,2.50
2022-08-22T11:08:37.243Z,2.00
2022-08-22T11:11:39.195Z,2.75
2022-08-22T11:14:36.782Z,2.20
2022-08-22T11:17:30.846Z,2.10
2022-08-22T11:20:16.949Z,3.35
2022-08-22T11:23:06.418Z,2.70
2022-08-22T11:25:52.439Z,2.55
2022-08-22T11:28:57.901Z,2.80
2022-08-22T11:31:51.961Z,2.28
2022-08-22T11:34:38.962Z,2.45
2022-08-22T11:37:13.852Z,2.55
2022-08-22T11:39:47.612Z,2.33
2022-08-22T11:42:29.554Z,2.15
2022-08-22T11:45:01.334Z,2.35
2022-08-22T11:47:35.206Z,2.40
2022-08-22T11:50:14.742Z,2.00
2022-08-22T11:53:04.761Z,1.90
2022-08-22T11:55:42.923Z,2.50
2022-08-22T11:58:28.752Z,2.20
2022-08-22T12:01:03.395Z,2.15
2022-08-22T12:03:50.998Z,2.53
2022-08-22T12:06:59.200Z,2.50
2022-08-22T12:09:38.668Z,2.45
2022-08-22T12:12:21.829Z,2.35
2022-08-22T12:14:59.231Z,2.40
2022-08-22T12:17:55.043Z,2.10
2022-08-22T12:20:45.520Z,1.90
2022-08-22T12:23:43.453Z,2.00
2022-08-22T12:26:27.462Z,1.88
2022-08-22T12:29:16.909Z,2.17
2022-08-22T12:32:12.946Z,2.20
2022-08-22T12:34:52.462Z,2.35
2022-08-22T12:37:26.441Z,1.98
2022-08-22T12:40:26.388Z,2.22
2022-08-22T12:43:27.790Z,2.20
2022-08-22T12:46:16.156Z,1.55
2022-08-22T12:49:07.684Z,2.17
2022-08-22T12:51:55.784Z,2.30
2022-08-22T12:54:59.817Z,2.40
2022-08-22T12:57:40.395Z,1.80
2022-08-22T13:00:26.789Z,1.77
2022-08-22T13:02:56.068Z,2.17
2022-08-22T13:05:28.306Z,1.90
2022-08-22T13:08:02.350Z,2.33
2022-08-22T13:10:42.138Z,1.60
2022-08-22T13:13:16.968Z,2.20
2022-08-22T13:15:58.872Z,1.92
2022-08-22T13:18:36.158Z,1.95
2022-08-22T13:21:14.509Z,2.05
2022-08-22T13:23:47.059Z,2.38
2022-08-22T13:26:31.811Z,2.58
2022-08-22T13:29:25.212Z,2.03
2022-08-22T13:31:59.043Z,2.10
2022-08-22T13:34:39.619Z,2.10
2022-08-22T13:37:16.693Z,2.10
2022-08-22T13:39:49.074Z,2.33
2022-08-22T13:42:27.898Z,2.33
2022-08-22T13:45:02.634Z,1.98
2022-08-22T13:47:34.516Z,2.05
2022-08-22T13:50:12.349Z,2.00
2022-08-22T13:52:52.566Z,2.03
2022-08-22T13:55:31.819Z,2.08
2022-08-22T13:58:07.573Z,2.00
2022-08-22T14:01:05.516Z,2.33
2022-08-22T14:03:40.975Z,2.35
2022-08-22T14:06:37.029Z,1.83
2022-08-22T14:09:17.347Z,2.13
2022-08-22T14:12:11.935Z,1.92
2022-08-22T14:14:42.611Z,1.77
2022-08-22T14:17:17.693Z,2.17
2022-08-22T14:19:58.600Z,2.72
2022-08-22T14:22:31.694Z,2.30
2022-08-22T14:25:07.898Z,2.25
2022-08-22T14:27:39.980Z,2.20
2022-08-22T14:30:15.847Z,2.33
2022-08-22T14:32:50.180Z,1.90
2022-08-22T14:35:34.754Z,2.05
2022-08-22T14:38:27.140Z,1.77
2022-08-22T14:41:03.264Z,2.05
2022-08-22T14:43:56.897Z,1.70
2022-08-22T14:46:29.970Z,1.98
2022-08-22T14:49:26.953Z,2.25
2022-08-22T14:52:06.579Z,2.03
2022-08-22T14:54:37.892Z,1.90
2022-08-22T14:57:20.114Z,1.90
2022-08-22T14:59:51.241Z,1.92
2022-08-22T15:02:27.603Z,2.50
2022-08-22T15:04:57.170Z,2.00
2022-08-22T15:07:30.986Z,1.90
2022-08-22T15:10:03.601Z,2.08
2022-08-22T15:12:38.797Z,1.92
2022-08-22T15:15:11.937Z,1.88
2022-08-22T15:17:44.650Z,2.08
2022-08-22T15:20:27.588Z,2.30
2022-08-22T15:22:59.797Z,2.00
2022-08-22T15:25:31.440Z,2.15
2022-08-22T15:28:05.711Z,2.10
2022-08-22T15:30:44.595Z,2.17
2022-08-22T15:33:18.852Z,2.10
2022-08-22T15:35:48.224Z,2.05
2022-08-22T15:38:29.487Z,2.00
2022-08-22T15:41:18.766Z,2.20
2022-08-22T15:43:49.926Z,2.25
2022-08-22T15:46:29.819Z,1.85
2022-08-22T15:49:02.653Z,2.47
2022-08-22T15:51:40.612Z,2.17
2022-08-22T15:54:24.993Z,2.03
2022-08-22T15:57:16.535Z,2.08
2022-08-22T15:59:55.856Z,2.60
2022-08-22T16:02:30.076Z,2.40
2022-08-22T16:05:22.974Z,2.38
2022-08-22T16:08:02.683Z,2.20
2022-08-22T16:10:35.805Z,2.13
2022-08-22T16:13:15.997Z,2.25
2022-08-22T16:16:01.284Z,2.35
2022-08-22T16:19:10.374Z,2.20
2022-08-22T16:22:05.662Z,2.20
2022-08-22T16:24:55.811Z,2.13
2022-08-22T16:27:28.021Z,2.20
2022-08-22T16:30:08.856Z,2.10
2022-08-22T16:32:37.786Z,3.00
2022-08-22T16:35:06.223Z,2.13
2022-08-22T16:37:48.865Z,2.60
2022-08-22T16:40:23.837Z,2.35
2022-08-22T16:43:12.085Z,2.28
2022-08-22T16:45:44.730Z,2.15
2022-08-22T16:48:35.470Z,2.30
2022-08-22T16:51:10.734Z,2.42
2022-08-22T16:54:08.705Z,2.47
2022-08-22T16:57:05.850Z,2.22
2022-08-22T17:00:00.570Z,2.13
2022-08-22T17:02:46.964Z,1.95
2022-08-22T17:05:41.194Z,2.17
2022-08-22T17:08:35.166Z,2.00
2022-08-22T17:11:13.717Z,2.20
2022-08-22T17:14:03.938Z,2.50
2022-08-22T17:16:53.393Z,2.05
2022-08-22T17:22:02.208Z,2.25
2022-08-22T17:24:38.493Z,2.42
2022-08-22T17:27:17.823Z,2.10
2022-08-22T17:29:59.185Z,3.03
2022-08-22T17:32:35.989Z,2.55
2022-08-22T17:35:17.501Z,2.40
2022-08-22T17:37:56.191Z,2.25
2022-08-22T17:40:37.398Z,2.20
2022-08-22T17:43:16.741Z,2.30
2022-08-22T17:46:02.180Z,2.38
2022-08-22T17:48:36.008Z,2.30
2022-08-22T17:51:16.895Z,2.80
2022-08-22T17:53:49.316Z,1.90
2022-08-22T17:56:23.751Z,2.33
2022-08-22T17:59:01.595Z,2.22
2022-08-22T18:01:50.219Z,2.25
2022-08-22T18:04:26.134Z,2.30
2022-08-22T18:07:01.937Z,2.28
2022-08-22T18:09:38.419Z,2.28
2022-08-22T18:12:22.289Z,2.95
2022-08-22T18:14:54.778Z,2.78
2022-08-22T18:17:31.549Z,2.33
2022-08-22T18:20:05.476Z,2.60
2022-08-22T18:22:41.217Z,2.33
2022-08-22T18:25:30.447Z,3.20
2022-08-22T18:28:04.837Z,2.03
2022-08-22T18:30:37.817Z,2.65
2022-08-22T18:33:13.508Z,2.15
2022-08-22T18:35:49.783Z,2.67
2022-08-22T18:38:29.559Z,2.20
2022-08-22T18:41:04.761Z,2.72
2022-08-22T18:43:38.688Z,1.88
2022-08-22T18:46:32.936Z,1.92
2022-08-22T18:49:15.952Z,2.60
2022-08-22T18:51:45.710Z,2.20
2022-08-22T18:54:38.143Z,2.53
2022-08-22T18:57:30.873Z,1.92
2022-08-22T19:00:08.539Z,2.00
2022-08-22T19:03:04.651Z,2.05
2022-08-22T19:06:09.026Z,2.10
2022-08-22T19:09:02.032Z,2.25
2022-08-22T19:11:47.214Z,2.10
2022-08-22T19:14:34.661Z,2.40
2022-08-22T19:17:58.762Z,3.10
2022-08-22T19:20:47.353Z,2.50
2022-08-22T19:23:49.073Z,2.40
2022-08-22T19:26:30.917Z,2.17
2022-08-22T19:29:02.281Z,2.20
2022-08-22T19:31:48.043Z,2.40
2022-08-22T19:34:22.086Z,2.35
2022-08-22T19:37:33.150Z,2.10
2022-08-22T19:40:09.056Z,2.08
2022-08-22T19:42:40.153Z,2.22
2022-08-22T19:45:19.889Z,2.53
2022-08-22T19:48:00.169Z,2.58
2022-08-22T19:50:35.401Z,2.42
2022-08-22T19:53:28.726Z,2.53
2022-08-22T19:56:08.239Z,2.45
2022-08-22T19:58:52.340Z,2.28
2022-08-22T20:01:47.020Z,2.30
2022-08-22T20:04:38.207Z,2.58
2022-08-22T20:07:16.571Z,2.85
2022-08-22T20:09:54.176Z,2.60
2022-08-22T20:12:33.089Z,2.55
2022-08-22T20:15:13.216Z,2.90
2022-08-22T20:20:35.962Z,2.45
2022-08-22T20:23:12.824Z,2.60
2022-08-22T20:25:49.443Z,2.97
2022-08-22T20:28:35.522Z,2.67
2022-08-22T20:31:08.526Z,2.70
2022-08-22T20:33:40.085Z,2.10
2022-08-22T20:36:27.094Z,2.63
2022-08-22T20:39:01.327Z,2.45
2022-08-22T20:41:35.692Z,2.60
2022-08-22T20:44:13.471Z,2.60
2022-08-22T20:46:53.361Z,2.67
2022-08-22T20:49:26.187Z,3.50
2022-08-22T20:51:57.820Z,3.10
2022-08-22T20:54:28.742Z,2.70
2022-08-22T20:57:00.050Z,2.20
2022-08-22T20:59:36.996Z,2.80
2022-08-22T21:02:12.485Z,2.70
2022-08-22T21:05:02.084Z,3.03
2022-08-22T21:07:33.177Z,3.17
2022-08-22T21:10:23.185Z,3.20
2022-08-22T21:13:12.399Z,2.90
2022-08-22T21:15:45.231Z,2.90
2022-08-22T21:18:15.708Z,3.00
2022-08-22T21:20:43.986Z,3.30
2022-08-22T21:23:15.288Z,2.78
2022-08-22T21:25:56.658Z,2.85
2022-08-22T21:28:30.581Z,3.30
2022-08-22T21:31:01.780Z,3.20
2022-08-22T21:33:29.866Z,2.95
2022-08-22T21:36:00.809Z,3.10
2022-08-22T21:38:29.189Z,3.33
2022-08-22T21:41:04.598Z,3.05
2022-08-22T21:43:38.018Z,2.97
2022-08-22T21:46:08.849Z,3.05
2022-08-22T21:48:41.294Z,3.10
2022-08-22T21:51:23.554Z,2.92
2022-08-22T21:54:03.728Z,3.35
2022-08-22T21:56:39.947Z,3.50
2022-08-22T21:59:25.504Z,3.22
2022-08-22T22:01:56.074Z,3.22
2022-08-22T22:04:24.783Z,3.50
2022-08-22T22:06:52.763Z,3.78
2022-08-22T22:09:20.763Z,3.40
2022-08-22T22:11:48.735Z,3.67
2022-08-22T22:14:16.635Z,3.75
2022-08-22T22:16:44.883Z,4.03
2022-08-22T22:19:14.319Z,3.67
2022-08-22T22:21:42.223Z,3.93
2022-08-22T22:24:10.251Z,3.45
2022-08-22T22:26:38.333Z,3.75
2022-08-22T22:29:07.811Z,3.85
2022-08-22T22:31:36.887Z,3.95
2022-08-22T22:34:05.167Z,3.75
2022-08-22T22:36:35.537Z,4.10
2022-08-22T22:39:05.588Z,3.55
2022-08-22T22:41:33.912Z,3.95
2022-08-22T22:44:02.008Z,3.42
2022-08-22T22:46:30.815Z,3.70
2022-08-22T22:48:59.297Z,3.40
2022-08-22T22:51:27.617Z,3.45
2022-08-22T22:53:58.399Z,3.58
2022-08-22T22:56:26.678Z,3.60
2022-08-22T22:59:00.812Z,3.85
2022-08-22T23:02:02.267Z,3.70
2022-08-22T23:04:30.647Z,3.70
2022-08-22T23:06:58.632Z,3.00
2022-08-22T23:09:38.335Z,3.90
2022-08-22T23:12:13.039Z,3.58
2022-08-22T23:14:41.223Z,3.22
2022-08-22T23:17:09.391Z,3.58
2022-08-22T23:19:39.028Z,3.17
2022-08-22T23:22:08.195Z,3.20
2022-08-22T23:24:38.969Z,3.13
2022-08-22T23:27:09.588Z,3.13
2022-08-22T23:29:40.838Z,3.28
2022-08-22T23:32:11.258Z,3.22
2022-08-22T23:34:43.809Z,2.90
2022-08-22T23:37:13.144Z,3.22
2022-08-22T23:39:43.490Z,3.38
2022-08-22T23:42:12.458Z,3.22
2022-08-22T23:44:42.161Z,3.42
2022-08-22T23:47:10.957Z,2.75
2022-08-22T23:49:40.653Z,2.95
2022-08-22T23:52:10.283Z,2.83
2022-08-22T23:54:38.646Z,3.20
2022-08-22T23:57:11.480Z,3.00
2022-08-22T23:59:46.387Z,3.25
